• Join FlightAware (Why Join?)
  • Login
  • US Flag 
02:18PM EDT


 

Airport Tracker/Info


-or-


 

Live Flight TrackerFlight Track Log ✈ BOE5 ✈ 08-Jun-2013 ✈ KMWH - KBFI

Flight Track Log - Related Links

Times and Time Zones

All times are in EDT time to prevent confusion due to time zone crossing. See the BOE5 flight status page for this flight to view local times or setup timezone preferences in your user account.

Time Position Orientation Groundspeed Altitude Reporting Facility
EDT Latitude Longitude Course Direction KTS MPH feet Rate Location/Type
01:38PM 47.2581 -119.4114 297° West 205 236 6,100  Level Seattle Center
01:39PM 47.2900 -119.5028 297° West 252 290 9,800 2,940 Climbing Seattle Center
01:40PM 47.3283 -119.6136 297° West 318 366 12,100 2,640 Climbing Seattle Center
01:41PM 47.3781 -119.7575 297° West 369 425 15,200 1,860 Climbing Seattle Center
01:42PM 47.4253 -119.8997 296° West 386 444 16,000 360 Climbing Seattle Center
01:43PM 47.4717 -120.0381 296° West 378 435 16,000  Level Seattle Center
01:44PM 47.5194 -120.1783 297° West 383 441 16,000  Level Seattle Center
01:45PM 47.5689 -120.3294 296° West 379 436 16,000  Level Seattle Center
01:46PM 47.6094 -120.4533 296° West 386 444 16,000  Level Seattle Center
01:47PM 47.6556 -120.5919 296° West 380 437 16,000  Level Seattle Center
01:48PM 47.6869 -120.7397 288° West 380 437 16,000  Level Seattle Center
01:49PM 47.7225 -120.9003 288° West 381 438 16,100 -60 Climbing Seattle Center
01:50PM 47.7525 -121.0500 287° West 382 440 15,900 -1,020 Descending Seattle Center
01:51PM 47.7839 -121.1969 288° West 380 437 14,100 -2,040 Descending Seattle Center
01:51PM 47.7994 -121.2775 286° West 377 434 13,100 -1,920 Descending Seattle Center
01:52PM 47.8194 -121.3703 288° West 387 445 12,200 -1,380 Descending Seattle Center
01:53PM 47.8481 -121.5150 286° West 367 422 10,900 -1,200 Descending Seattle Center
01:54PM 47.8714 -121.6308 287° West 312 359 10,000 -480 Descending Seattle Center
01:55PM 47.8614 -121.7392 262° West 269 310 10,000  Level Seattle Center
01:56PM 47.8028 -121.8153 221° Southwest 274 315 10,000 -360 Level Seattle Center
01:57PM 47.7331 -121.8647 206° Southwest 284 327 9,300 -1,560 Descending Seattle Center
01:58PM 47.6664 -121.9089 204° Southwest 281 323 7,000 -2,460 Descending Seattle Center
01:58PM 47.6453 -121.9219 203° Southwest 277 319 6,400 -1,440 Descending Seattle Center
01:59PM 47.5856 -121.9575 202° Southwest 272 313 5,400 -840 Descending Seattle Center
02:00PM 47.5208 -121.9839 195° South 256 295 5,000 -360 Descending Seattle Center
02:00PM 47.5058 -121.9897 195° South 260 299 5,000 -120 Level Seattle Center
02:01PM 47.4603 -122.0078 195° South 189 217 4,900 -480 Descending Seattle Center
02:02PM 47.4175 -122.0317 201° Southwest 164 189 4,200 -600 Descending Seattle Center
02:02PM 47.4094 -122.0492 236° Southwest 174 200 4,200 -420 Level Seattle Center
02:03PM 47.3908 -122.0925 238° Southwest 177 204 3,800 -720 Descending Seattle Center
02:03PM 47.3833 -122.1114 240° Southwest 179 206 3,500 -1,020 Descending Seattle Center
02:04PM 47.3931 -122.1536 289° West 182 209 2,900 -900 Descending Seattle Center
02:04PM 47.4025 -122.1778 300° West 178 205 2,600 -900 Descending Seattle Center
02:05PM 47.4181 -122.2083 307° West 175 201 2,100 -600 Descending Seattle Center
02:05PM 47.4367 -122.2236 331° Northwest 169 194 2,000 -720 Descending Seattle Center
02:06PM 47.4606 -122.2439 330° Northwest 173 199 1,400 -1,140 Descending Seattle Center
02:06PM 47.4800 -122.2619 328° Northwest 168 193 900 -900 Descending Seattle Center
02:07PM 47.5011 -122.2806 329° Northwest 151 174 400 -720 Descending Seattle Center
02:07PM 47.5092 -122.2858 336° Northwest 148 170 200 -540 Descending Seattle Center
02:10PM 47.5167 -122.3000 258° West  Level FlightAware Approximate